Miami, Florida
Current Conditions -  °F | °C
As of 4:53 PM on Wednesday 22 Oct 2014 (Local Time) from KMIA Reporting Station
Light Rain Light Rain  
Wind Chill: 24°   Ceiling: 10000
Heat Index: 24°   Visibility: 6mi
Dew Point: 23°   Wind: 0mph
Humidity: 94%   Direction: NA
Pressure: 29.92"   Gusts: NA
Location:  25.77°N, 80.19°W
Report Text: KMIA 222053Z 00000KT 6SM -RA BR FEW021 SCT055 BKN100 OVC250 24/23 A2992 RMK AO2 SLP131 P0029 60029 T02440233 55003
Loading
Personal Weather Stations






























Interactive Weather Map New forecast layout! Learn more

10-Day Weather Forecast

Advertisements
Track Severe Weather on mobile